LIRA Airport Information

Runway Information
Runway 15 Length 7242 ft width 154 ft
Elevation 341 ft Threshold 0 ft Heading 153
Runway 33 Length 7242 ft Width 154 ft
Elevation 427 ft Threshold 0 ft Heading 333
Airport Frequencies
Type ARR Name ROMA ARR Frequency 119.2 MHZ
Type CLD Name CLNC DEL Frequency 119.4 MHZ
Type DIR Name ROMA DIREC Frequency 119.2 MHZ
Type GND Name GND Frequency 121.75 MHZ
Type TWR Name TWR Frequency 120.5 MHZ
Airport Navaids
Type NDB Name Ciampino Frequency 412 KHZ
Type VOR-DME Name Roma Frequency 110800 KHZ
Airport Weather Information & NOTAM
ADDS - METARS form results

(0617 UTC 19 August 2018)
 
METAR text: LIRA 190550Z 01005KT CAVOK 18/16 Q1016
Conditions at: LIRA (CIAMPINO(IT-AFB/, IT) observed 0550 UTC 19 August 2018
Temperature: 18.0°C (64°F)
Dewpoint: 16.0°C (61°F) [RH = 88%]
Pressure (altimeter): 30.00 inches Hg (1016.0 mb)
Winds: from the N (10 degrees) at 6 MPH (5 knots; 2.6 m/s)
Visibility: 6 or more miles (10+ km)
Ceiling: ceiling and visibility are OK
Clouds: unknown
Weather: no significant weather observed at this time

METAR text: LIRA 190520Z VRB02KT CAVOK 18/16 Q1016
Conditions at: LIRA (CIAMPINO(IT-AFB/, IT) observed 0520 UTC 19 August 2018
Temperature: 18.0°C (64°F)
Dewpoint: 16.0°C (61°F) [RH = 88%]
Pressure (altimeter): 30.00 inches Hg (1016.0 mb)
Winds: variable direction winds at 2 MPH (2 knots; 1.0 m/s)
Visibility: 6 or more miles (10+ km)
Ceiling: ceiling and visibility are OK
Clouds: unknown
Weather: no significant weather observed at this time